createdAt,value
2023-01-23T00:02:05.811Z,100.00
2023-01-23T00:04:32.272Z,100.00
2023-01-23T00:06:58.678Z,100.00
2023-01-23T00:09:25.029Z,100.00
2023-01-23T00:11:51.362Z,100.00
2023-01-23T00:14:18.322Z,100.00
2023-01-23T00:16:44.721Z,100.00
2023-01-23T00:19:11.339Z,100.00
2023-01-23T00:21:37.740Z,100.00
2023-01-23T00:24:04.503Z,100.00
2023-01-23T00:26:32.950Z,100.00
2023-01-23T00:28:59.945Z,100.00
2023-01-23T00:31:31.942Z,100.00
2023-01-23T00:34:02.392Z,100.00
2023-01-23T00:36:31.650Z,100.00
2023-01-23T00:38:58.093Z,100.00
2023-01-23T00:41:24.571Z,100.00
2023-01-23T00:43:52.183Z,100.00
2023-01-23T00:46:22.542Z,100.00
2023-01-23T00:48:49.395Z,100.00
2023-01-23T00:51:15.944Z,100.00
2023-01-23T00:53:42.875Z,100.00
2023-01-23T00:56:09.321Z,100.00
2023-01-23T00:58:35.842Z,100.00
2023-01-23T01:01:02.271Z,100.00
2023-01-23T01:03:28.692Z,100.00
2023-01-23T01:05:55.198Z,100.00
2023-01-23T01:08:21.614Z,100.00
2023-01-23T01:10:48.047Z,100.00
2023-01-23T01:13:16.825Z,100.00
2023-01-23T01:15:43.256Z,100.00
2023-01-23T01:18:09.735Z,100.00
2023-01-23T01:20:36.118Z,100.00
2023-01-23T01:23:02.977Z,100.00
2023-01-23T01:25:30.384Z,100.00
2023-01-23T01:27:56.722Z,100.00
2023-01-23T01:30:25.696Z,100.00
2023-01-23T01:32:52.083Z,100.00
2023-01-23T01:35:18.574Z,100.00
2023-01-23T01:37:45.033Z,100.00
2023-01-23T01:40:15.479Z,100.00
2023-01-23T01:42:44.969Z,100.00
2023-01-23T01:45:54.740Z,100.00
2023-01-23T01:48:25.535Z,100.00
2023-01-23T01:50:53.284Z,100.00
2023-01-23T01:53:25.066Z,100.00
2023-01-23T01:55:51.535Z,100.00
2023-01-23T01:58:18.373Z,100.00
2023-01-23T02:00:44.978Z,100.00
2023-01-23T02:03:11.437Z,100.00
2023-01-23T02:05:44.791Z,100.00
2023-01-23T02:08:21.560Z,100.00
2023-01-23T02:10:48.548Z,100.00
2023-01-23T02:13:28.425Z,100.00
2023-01-23T02:15:54.867Z,100.00
2023-01-23T02:18:21.957Z,100.00
2023-01-23T02:20:51.917Z,100.00
2023-01-23T02:23:47.693Z,100.00
2023-01-23T02:26:18.106Z,100.00
2023-01-23T02:28:47.746Z,100.00
2023-01-23T02:31:15.383Z,100.00
2023-01-23T02:33:53.750Z,100.00
2023-01-23T02:36:23.946Z,100.00
2023-01-23T02:38:55.701Z,100.00
2023-01-23T02:41:35.947Z,100.00
2023-01-23T02:44:08.993Z,100.00
2023-01-23T02:46:35.374Z,100.00
2023-01-23T02:49:02.703Z,100.00
2023-01-23T02:51:29.094Z,100.00
2023-01-23T02:53:55.522Z,100.00
2023-01-23T02:56:21.946Z,100.00
2023-01-23T02:59:07.091Z,100.00
2023-01-23T03:01:35.664Z,99.94
2023-01-23T03:04:03.586Z,100.00
2023-01-23T03:06:36.047Z,100.00
2023-01-23T03:09:05.576Z,100.00
2023-01-23T03:11:32.354Z,100.00
2023-01-23T03:13:58.747Z,100.00
2023-01-23T03:16:25.240Z,100.00
2023-01-23T03:18:54.759Z,100.00
2023-01-23T03:21:21.572Z,100.00
2023-01-23T03:23:48.285Z,100.00
2023-01-23T03:26:15.443Z,100.00
2023-01-23T03:29:00.473Z,100.00
2023-01-23T03:31:26.925Z,100.00
2023-01-23T03:33:53.444Z,100.00
2023-01-23T03:36:20.984Z,99.11
2023-01-23T03:39:05.794Z,99.29
2023-01-23T03:41:32.249Z,99.46
2023-01-23T03:43:58.590Z,100.00
2023-01-23T03:46:25.065Z,99.64
2023-01-23T03:48:51.516Z,99.53
2023-01-23T03:51:18.006Z,99.90
2023-01-23T03:53:44.448Z,99.37
2023-01-23T03:56:10.901Z,100.00
2023-01-23T03:58:37.247Z,99.80
2023-01-23T04:01:06.883Z,100.00
2023-01-23T04:03:33.313Z,100.00
2023-01-23T04:06:00.013Z,100.00
2023-01-23T04:08:26.531Z,100.00
2023-01-23T04:11:01.471Z,100.00
2023-01-23T04:13:27.871Z,100.00
2023-01-23T04:15:54.349Z,100.00
2023-01-23T04:18:20.692Z,99.33
2023-01-23T04:20:47.629Z,100.00
2023-01-23T04:23:14.040Z,99.29
2023-01-23T04:25:40.437Z,99.59
2023-01-23T04:28:06.837Z,100.00
2023-01-23T04:30:33.367Z,99.21
2023-01-23T04:32:59.925Z,100.00
2023-01-23T04:35:26.442Z,99.54
2023-01-23T04:37:52.858Z,98.98
2023-01-23T04:40:19.891Z,99.31
2023-01-23T04:42:46.445Z,99.64
2023-01-23T04:45:12.865Z,98.85
2023-01-23T04:47:39.426Z,99.85
2023-01-23T04:50:06.077Z,99.20
2023-01-23T04:52:32.414Z,99.26
2023-01-23T04:54:58.890Z,99.97
2023-01-23T04:57:25.291Z,100.00
2023-01-23T04:59:51.674Z,99.37
2023-01-23T05:02:18.060Z,98.68
2023-01-23T05:04:44.924Z,99.93
2023-01-23T05:07:12.287Z,99.57
2023-01-23T05:09:39.413Z,99.32
2023-01-23T05:12:06.418Z,99.22
2023-01-23T05:14:33.052Z,99.09
2023-01-23T05:16:59.508Z,100.00
2023-01-23T05:19:25.876Z,100.00
2023-01-23T05:21:52.251Z,100.00
2023-01-23T05:24:18.589Z,100.00
2023-01-23T05:26:45.038Z,100.00
2023-01-23T05:29:11.513Z,100.00
2023-01-23T05:31:38.071Z,100.00
2023-01-23T05:34:04.599Z,100.00
2023-01-23T05:36:31.049Z,100.00
2023-01-23T05:38:57.661Z,100.00
2023-01-23T05:41:25.682Z,100.00
2023-01-23T05:43:52.141Z,99.74
2023-01-23T05:46:18.566Z,100.00
2023-01-23T05:48:49.138Z,100.00
2023-01-23T05:51:17.160Z,99.75
2023-01-23T05:53:43.815Z,99.97
2023-01-23T05:56:10.389Z,100.00
2023-01-23T05:58:36.774Z,100.00
2023-01-23T06:01:04.118Z,100.00
2023-01-23T06:03:30.762Z,100.00
2023-01-23T06:05:57.128Z,100.00
2023-01-23T06:08:23.579Z,100.00
2023-01-23T06:10:50.754Z,100.00
2023-01-23T06:13:17.169Z,100.00
2023-01-23T06:15:43.615Z,100.00
2023-01-23T06:18:10.134Z,100.00
2023-01-23T06:20:36.518Z,100.00
2023-01-23T06:23:03.185Z,100.00
2023-01-23T06:25:29.538Z,99.90
2023-01-23T06:27:55.874Z,99.99
2023-01-23T06:30:22.382Z,99.61
2023-01-23T06:32:49.030Z,100.00
2023-01-23T06:35:15.531Z,100.00
2023-01-23T06:37:42.247Z,100.00
2023-01-23T06:40:13.143Z,99.80
2023-01-23T06:42:43.091Z,99.82
2023-01-23T06:45:10.723Z,99.64
2023-01-23T06:47:38.025Z,99.66
2023-01-23T06:50:05.059Z,99.76
2023-01-23T06:52:31.531Z,100.00
2023-01-23T06:54:57.903Z,100.00
2023-01-23T06:57:24.301Z,100.00
2023-01-23T06:59:50.681Z,100.00
2023-01-23T07:02:17.094Z,99.75
2023-01-23T07:04:43.461Z,100.00
2023-01-23T07:07:09.966Z,99.88
2023-01-23T07:09:36.494Z,100.00
2023-01-23T07:12:03.596Z,100.00
2023-01-23T07:14:29.954Z,100.00
2023-01-23T07:16:56.403Z,100.00
2023-01-23T07:19:22.814Z,100.00
2023-01-23T07:21:49.353Z,100.00
2023-01-23T07:24:15.839Z,100.00
2023-01-23T07:26:42.213Z,100.00
2023-01-23T07:29:11.578Z,100.00
2023-01-23T07:31:38.220Z,100.00
2023-01-23T07:34:04.660Z,100.00
2023-01-23T07:36:31.093Z,100.00
2023-01-23T07:38:58.956Z,100.00
2023-01-23T07:41:25.715Z,100.00
2023-01-23T07:43:52.286Z,100.00
2023-01-23T07:46:18.874Z,100.00
2023-01-23T07:48:45.346Z,100.00
2023-01-23T07:51:11.920Z,100.00
2023-01-23T07:53:38.478Z,100.00
2023-01-23T07:56:05.913Z,100.00
2023-01-23T07:58:32.715Z,100.00
2023-01-23T08:00:59.194Z,100.00
2023-01-23T08:03:28.884Z,100.00
2023-01-23T08:05:55.310Z,100.00
2023-01-23T08:08:21.698Z,100.00
2023-01-23T08:10:48.110Z,100.00
2023-01-23T08:13:14.583Z,100.00
2023-01-23T08:15:40.984Z,100.00
2023-01-23T08:18:07.450Z,100.00
2023-01-23T08:20:34.014Z,100.00
2023-01-23T08:23:02.043Z,100.00
2023-01-23T08:25:28.467Z,100.00
2023-01-23T08:27:54.813Z,100.00
2023-01-23T08:30:21.633Z,100.00
2023-01-23T08:32:48.219Z,100.00
2023-01-23T08:35:15.182Z,100.00
2023-01-23T08:37:42.293Z,100.00
2023-01-23T08:40:09.532Z,100.00
2023-01-23T08:42:36.013Z,100.00
2023-01-23T08:45:02.374Z,100.00
2023-01-23T08:47:28.872Z,100.00
2023-01-23T08:49:55.276Z,100.00
2023-01-23T08:52:21.611Z,100.00
2023-01-23T08:54:48.027Z,100.00
2023-01-23T08:57:14.449Z,100.00
2023-01-23T08:59:42.611Z,100.00
2023-01-23T09:02:12.643Z,100.00
2023-01-23T09:04:39.261Z,100.00
2023-01-23T09:07:05.625Z,100.00
2023-01-23T09:09:32.061Z,100.00
2023-01-23T09:11:58.453Z,100.00
2023-01-23T09:14:24.815Z,100.00
2023-01-23T09:16:51.365Z,100.00
2023-01-23T09:19:17.777Z,100.00
2023-01-23T09:21:44.558Z,100.00
2023-01-23T09:24:10.958Z,100.00
2023-01-23T09:26:37.611Z,100.00
2023-01-23T09:29:04.009Z,100.00
2023-01-23T09:31:30.818Z,100.00
2023-01-23T09:33:57.686Z,100.00
2023-01-23T09:36:41.299Z,100.00
2023-01-23T09:39:07.909Z,100.00
2023-01-23T09:41:34.401Z,100.00
2023-01-23T09:44:07.361Z,100.00
2023-01-23T09:47:02.445Z,100.00
2023-01-23T09:49:41.335Z,100.00
2023-01-23T09:52:13.128Z,100.00
2023-01-23T09:54:48.890Z,99.89
2023-01-23T09:57:15.242Z,99.82
2023-01-23T10:00:00.206Z,99.45
2023-01-23T10:02:28.209Z,99.05
2023-01-23T10:04:58.060Z,98.31
2023-01-23T10:07:43.810Z,98.64
2023-01-23T10:10:45.404Z,98.52
2023-01-23T10:13:48.530Z,98.59
2023-01-23T10:16:14.877Z,98.84
2023-01-23T10:18:54.282Z,98.28
2023-01-23T10:21:38.901Z,97.99
2023-01-23T10:24:26.983Z,97.01
2023-01-23T10:26:58.294Z,97.62
2023-01-23T10:29:38.831Z,97.32
2023-01-23T10:32:20.877Z,96.69
2023-01-23T10:34:55.124Z,96.94
2023-01-23T10:37:40.549Z,97.25
2023-01-23T10:40:12.592Z,97.72
2023-01-23T10:42:38.968Z,96.81
2023-01-23T10:45:06.971Z,97.21
2023-01-23T10:47:44.056Z,96.38
2023-01-23T10:50:11.528Z,95.95
2023-01-23T10:52:43.338Z,96.14
2023-01-23T10:55:19.639Z,95.46
2023-01-23T10:57:49.012Z,95.28
2023-01-23T11:00:27.567Z,95.87
2023-01-23T11:02:54.075Z,95.06
2023-01-23T11:05:46.905Z,94.21
2023-01-23T11:08:25.994Z,94.57
2023-01-23T11:10:52.947Z,94.81
2023-01-23T11:13:29.718Z,94.88
2023-01-23T11:15:56.910Z,94.11
2023-01-23T11:18:33.818Z,95.32
2023-01-23T11:21:01.251Z,95.08
2023-01-23T11:23:29.286Z,94.72
2023-01-23T11:25:55.883Z,94.45
2023-01-23T11:28:47.655Z,94.70
2023-01-23T11:31:18.831Z,94.17
2023-01-23T11:33:58.491Z,94.93
2023-01-23T11:36:38.400Z,94.67
2023-01-23T11:39:26.629Z,95.25
2023-01-23T11:41:53.070Z,94.91
2023-01-23T11:44:23.071Z,94.45
2023-01-23T11:46:49.848Z,94.95
2023-01-23T11:49:25.149Z,94.48
2023-01-23T11:52:15.844Z,95.57
2023-01-23T11:55:01.075Z,94.93
2023-01-23T11:57:48.401Z,93.63
2023-01-23T12:00:24.642Z,93.90
2023-01-23T12:03:00.163Z,94.20
2023-01-23T12:06:03.522Z,93.97
2023-01-23T12:08:43.581Z,93.51
2023-01-23T12:11:22.199Z,93.09
2023-01-23T12:14:26.361Z,93.79
2023-01-23T12:17:10.602Z,93.13
2023-01-23T12:20:15.533Z,93.42
2023-01-23T12:23:09.906Z,93.70
2023-01-23T12:25:40.333Z,92.50
2023-01-23T12:28:25.332Z,93.52
2023-01-23T12:31:08.793Z,93.75
2023-01-23T12:33:58.402Z,93.51
2023-01-23T12:36:30.906Z,92.91
2023-01-23T12:39:16.072Z,93.21
2023-01-23T12:42:03.947Z,93.35
2023-01-23T12:44:42.634Z,93.42
2023-01-23T12:47:17.157Z,93.25
2023-01-23T12:50:14.819Z,92.71
2023-01-23T12:52:49.034Z,93.70
2023-01-23T12:55:25.901Z,93.12
2023-01-23T12:58:08.153Z,92.78
2023-01-23T13:00:53.868Z,93.21
2023-01-23T13:03:37.305Z,92.93
2023-01-23T13:06:22.713Z,92.73
2023-01-23T13:09:17.483Z,92.36
2023-01-23T13:12:21.715Z,92.73
2023-01-23T13:15:12.699Z,92.72
2023-01-23T13:17:38.937Z,92.14
2023-01-23T13:20:37.374Z,93.47
2023-01-23T13:23:35.223Z,93.43
2023-01-23T13:26:17.114Z,94.12
2023-01-23T13:28:48.298Z,93.49
2023-01-23T13:31:40.629Z,93.15
2023-01-23T13:34:16.360Z,93.09
2023-01-23T13:36:45.187Z,92.57
2023-01-23T13:39:17.564Z,93.09
2023-01-23T13:41:49.231Z,92.87
2023-01-23T13:44:35.737Z,92.63
2023-01-23T14:21:52.155Z,93.11
2023-01-23T14:24:24.258Z,93.43
2023-01-23T14:26:53.945Z,93.41
2023-01-23T14:29:23.557Z,92.82
2023-01-23T14:31:51.334Z,92.66
2023-01-23T14:34:23.613Z,92.31
2023-01-23T14:37:04.140Z,92.95
2023-01-23T14:39:33.262Z,92.13
2023-01-23T14:42:02.662Z,92.61
2023-01-23T14:44:45.492Z,92.05
2023-01-23T14:47:21.557Z,90.82
2023-01-23T14:49:48.181Z,91.09
2023-01-23T14:52:24.387Z,91.65
2023-01-23T14:54:54.422Z,91.98
2023-01-23T14:57:23.803Z,91.46
2023-01-23T14:59:54.684Z,92.63
2023-01-23T15:02:33.890Z,93.04
2023-01-23T15:05:07.341Z,92.80
2023-01-23T15:07:35.181Z,93.50
2023-01-23T15:10:02.329Z,92.98
2023-01-23T15:12:28.797Z,91.30
2023-01-23T15:14:56.404Z,91.03
2023-01-23T15:17:23.026Z,92.93
2023-01-23T15:19:51.808Z,94.05
2023-01-23T15:22:21.894Z,94.64
2023-01-23T15:24:48.507Z,94.52
2023-01-23T15:27:32.159Z,94.54
2023-01-23T15:30:30.412Z,94.08
2023-01-23T15:32:58.004Z,94.02
2023-01-23T15:35:24.937Z,94.43
2023-01-23T15:37:55.928Z,94.72
2023-01-23T15:40:27.588Z,94.29
2023-01-23T15:43:03.727Z,95.44
2023-01-23T15:45:30.118Z,95.96
2023-01-23T15:47:56.735Z,95.25
2023-01-23T15:50:23.483Z,95.30
2023-01-23T15:52:52.374Z,96.07
2023-01-23T15:55:19.870Z,95.94
2023-01-23T15:57:46.550Z,95.91
2023-01-23T16:00:17.845Z,96.24
2023-01-23T16:02:55.646Z,96.48
2023-01-23T16:05:26.992Z,96.53
2023-01-23T16:07:54.591Z,96.56
2023-01-23T16:10:23.711Z,96.33
2023-01-23T16:12:52.579Z,96.55
2023-01-23T16:15:20.367Z,97.07
2023-01-23T16:17:47.588Z,97.12
2023-01-23T16:20:28.640Z,96.08
2023-01-23T16:23:01.852Z,96.48
2023-01-23T16:25:44.433Z,96.28
2023-01-23T16:28:14.834Z,96.67
2023-01-23T16:30:41.391Z,96.67
2023-01-23T16:33:08.029Z,97.03
2023-01-23T16:35:34.442Z,96.79
2023-01-23T16:38:01.105Z,96.99
2023-01-23T16:40:30.469Z,97.93
2023-01-23T16:42:57.308Z,98.08
2023-01-23T16:45:28.479Z,98.02
2023-01-23T16:47:55.573Z,98.36
2023-01-23T16:50:29.382Z,99.06
2023-01-23T16:53:06.634Z,99.00
2023-01-23T16:55:36.594Z,98.73
2023-01-23T16:58:05.176Z,99.23
2023-01-23T17:00:35.070Z,99.36
2023-01-23T17:03:07.737Z,98.85
2023-01-23T17:05:34.134Z,99.08
2023-01-23T17:08:00.672Z,98.49
2023-01-23T17:10:37.835Z,99.19
2023-01-23T17:13:11.030Z,98.93
2023-01-23T17:15:37.724Z,99.54
2023-01-23T17:18:04.413Z,99.84
2023-01-23T17:20:30.787Z,99.79
2023-01-23T17:22:57.291Z,98.92
2023-01-23T17:25:26.558Z,99.30
2023-01-23T17:28:11.617Z,99.17
2023-01-23T17:30:39.908Z,99.35
2023-01-23T17:33:13.513Z,100.00
2023-01-23T17:35:39.961Z,99.98
2023-01-23T17:38:06.908Z,99.49
2023-01-23T17:40:33.655Z,99.44
2023-01-23T17:43:00.285Z,99.56
2023-01-23T17:45:28.201Z,99.54
2023-01-23T17:47:55.647Z,99.17
2023-01-23T17:50:24.979Z,99.55
2023-01-23T17:52:53.069Z,98.45
2023-01-23T17:55:28.250Z,99.08
2023-01-23T17:57:54.888Z,99.24
2023-01-23T18:00:21.926Z,98.62
2023-01-23T18:02:58.937Z,99.59
2023-01-23T18:05:25.744Z,99.71
2023-01-23T18:07:54.471Z,98.45
2023-01-23T18:10:22.070Z,99.50
2023-01-23T18:13:10.655Z,99.25
2023-01-23T18:15:58.885Z,99.30
2023-01-23T18:18:37.111Z,97.80
2023-01-23T18:21:06.350Z,99.10
2023-01-23T18:23:37.099Z,98.36
2023-01-23T18:26:18.687Z,99.37
2023-01-23T18:28:59.524Z,99.09
2023-01-23T18:32:04.542Z,99.75
2023-01-23T18:34:55.342Z,100.00
2023-01-23T18:37:30.632Z,99.45
2023-01-23T18:40:21.299Z,98.95
2023-01-23T18:43:21.551Z,99.85
2023-01-23T18:45:48.258Z,99.99
2023-01-23T18:48:25.015Z,100.00
2023-01-23T18:51:10.375Z,100.00
2023-01-23T18:54:01.707Z,100.00
2023-01-23T18:56:34.289Z,100.00
2023-01-23T18:59:26.122Z,100.00
2023-01-23T19:02:15.789Z,99.99
2023-01-23T19:05:12.314Z,99.63
2023-01-23T19:07:39.221Z,99.70
2023-01-23T19:10:07.737Z,99.10
2023-01-23T19:12:40.750Z,99.23
2023-01-23T19:15:07.161Z,98.96
2023-01-23T19:17:37.024Z,99.22
2023-01-23T19:20:24.689Z,100.00
2023-01-23T19:23:06.241Z,100.00
2023-01-23T19:25:32.941Z,99.82
2023-01-23T19:28:00.679Z,100.00
2023-01-23T19:30:27.478Z,100.00
2023-01-23T19:32:53.966Z,100.00
2023-01-23T19:35:20.965Z,100.00
2023-01-23T19:37:47.714Z,100.00
2023-01-23T19:40:16.039Z,100.00
2023-01-23T19:42:54.351Z,100.00
2023-01-23T19:45:25.317Z,100.00
2023-01-23T19:47:53.284Z,100.00
2023-01-23T19:50:21.392Z,100.00
2023-01-23T19:52:48.804Z,100.00
2023-01-23T19:55:27.209Z,100.00
2023-01-23T19:57:56.055Z,100.00
2023-01-23T20:00:28.022Z,100.00
2023-01-23T20:02:54.449Z,100.00
2023-01-23T20:05:22.162Z,100.00
2023-01-23T20:07:52.140Z,100.00
2023-01-23T20:10:18.632Z,100.00
2023-01-23T20:12:51.699Z,100.00
2023-01-23T20:15:21.611Z,100.00
2023-01-23T20:17:48.266Z,100.00
2023-01-23T20:20:15.291Z,100.00
2023-01-23T20:22:42.889Z,100.00
2023-01-23T20:25:14.442Z,100.00
2023-01-23T20:27:41.546Z,100.00
2023-01-23T20:30:12.868Z,100.00
2023-01-23T20:32:39.420Z,100.00
2023-01-23T20:35:06.066Z,100.00
2023-01-23T20:37:32.649Z,100.00
2023-01-23T20:39:59.109Z,100.00
2023-01-23T20:42:25.518Z,100.00
2023-01-23T20:44:51.898Z,100.00
2023-01-23T20:47:18.514Z,100.00
2023-01-23T20:49:44.861Z,100.00
2023-01-23T20:52:29.937Z,100.00
2023-01-23T20:54:56.579Z,100.00
2023-01-23T20:57:23.181Z,100.00
2023-01-23T20:59:49.575Z,100.00
2023-01-23T21:02:25.592Z,100.00
2023-01-23T21:04:53.131Z,100.00
2023-01-23T21:07:22.512Z,100.00
2023-01-23T21:09:49.175Z,100.00
2023-01-23T21:12:15.632Z,100.00
2023-01-23T21:14:42.091Z,100.00
2023-01-23T21:17:09.669Z,100.00
2023-01-23T21:19:38.832Z,100.00
2023-01-23T21:22:06.474Z,100.00
2023-01-23T21:24:36.735Z,100.00
2023-01-23T21:27:04.960Z,100.00
2023-01-23T21:29:32.555Z,100.00
2023-01-23T21:31:59.457Z,100.00
2023-01-23T21:34:26.223Z,100.00
2023-01-23T21:36:53.127Z,100.00
2023-01-23T21:39:19.968Z,100.00
2023-01-23T21:41:46.448Z,100.00
2023-01-23T21:44:13.166Z,100.00
2023-01-23T21:46:39.689Z,99.84
2023-01-23T21:49:06.128Z,98.99
2023-01-23T21:51:32.655Z,98.56
2023-01-23T21:53:59.113Z,99.34
2023-01-23T21:56:25.752Z,100.00
2023-01-23T21:58:53.011Z,99.35
2023-01-23T22:01:41.941Z,99.68
2023-01-23T22:04:10.374Z,99.80
2023-01-23T22:06:38.541Z,98.76
2023-01-23T22:09:06.672Z,99.55
2023-01-23T22:11:33.692Z,99.57
2023-01-23T22:14:00.478Z,99.26
2023-01-23T22:16:46.423Z,99.23
2023-01-23T22:19:19.223Z,98.82
2023-01-23T22:21:46.584Z,98.69
2023-01-23T22:24:13.649Z,98.80
2023-01-23T22:26:40.171Z,98.93
2023-01-23T22:29:06.973Z,99.20
2023-01-23T22:31:33.729Z,99.83
2023-01-23T22:34:00.181Z,99.15
2023-01-23T22:36:26.550Z,99.21
2023-01-23T22:38:54.212Z,99.86
2023-01-23T22:41:21.904Z,100.00
2023-01-23T22:43:53.196Z,99.83
2023-01-23T22:46:19.637Z,100.00
2023-01-23T22:48:46.118Z,99.75
2023-01-23T22:51:24.753Z,100.00
2023-01-23T22:53:52.783Z,100.00
2023-01-23T22:56:19.312Z,99.56
2023-01-23T22:58:46.787Z,100.00
2023-01-23T23:01:13.451Z,99.64
2023-01-23T23:03:40.565Z,100.00
2023-01-23T23:06:08.982Z,100.00
2023-01-23T23:08:36.149Z,100.00
2023-01-23T23:11:11.052Z,100.00
2023-01-23T23:13:39.556Z,99.29
2023-01-23T23:16:18.243Z,99.37
2023-01-23T23:18:46.466Z,100.00
2023-01-23T23:21:14.940Z,99.16
2023-01-23T23:23:41.544Z,99.20
2023-01-23T23:26:10.070Z,99.18
2023-01-23T23:28:37.402Z,99.55
2023-01-23T23:31:04.280Z,99.68
2023-01-23T23:33:30.901Z,98.83
2023-01-23T23:35:57.429Z,97.48
2023-01-23T23:38:23.993Z,98.75
2023-01-23T23:40:55.373Z,97.72
2023-01-23T23:43:21.823Z,97.67
2023-01-23T23:45:56.577Z,97.09
2023-01-23T23:48:26.448Z,97.86
2023-01-23T23:50:53.194Z,97.80
2023-01-23T23:53:20.058Z,98.57
2023-01-23T23:55:46.700Z,99.39
2023-01-23T23:58:13.168Z,99.19
